Time;durP1;ratioP1;P1;durP2;ratioP2;P2;SDS_P1;SDS_P2;PMS_P1;PMS_P2;Temp;Humidity;BMP_temperature;BMP_pressure;BME280_temperature;BME280_humidity;BME280_pressure;Samples;Min_cycle;Max_cycle;Signal;HPM_P1;HPM_P2
2023/08/08 00:01:47;;;;;;;1.10;1.00;;;14.00;1.00;;;;;;5155605;28;20404;-65
2023/08/08 00:04:23;;;;;;;1.30;1.10;;;14.00;1.00;;;;;;5152074;28;20056;-68
2023/08/08 00:06:56;;;;;;;1.25;1.00;;;14.00;1.00;;;;;;5141936;28;20046;-65
2023/08/08 00:09:28;;;;;;;0.93;0.93;;;13.90;99.90;;;;;;5129683;28;20068;-67
2023/08/08 00:12:00;;;;;;;1.77;1.00;;;14.00;99.90;;;;;;5158991;28;20060;-67
2023/08/08 00:14:32;;;;;;;0.90;0.90;;;13.90;99.90;;;;;;5143207;28;20045;-67
2023/08/08 00:17:04;;;;;;;2.38;1.20;;;13.90;99.90;;;;;;5161720;28;20061;-67
2023/08/08 00:19:36;;;;;;;1.20;1.10;;;13.90;99.90;;;;;;5145902;28;20266;-67
2023/08/08 00:22:08;;;;;;;1.00;0.90;;;13.90;99.90;;;;;;5152501;28;20458;-67
2023/08/08 00:24:42;;;;;;;2.13;1.20;;;13.80;1.00;;;;;;5163079;28;20033;-67
2023/08/08 00:27:16;;;;;;;1.10;1.00;;;13.90;1.00;;;;;;5161685;28;20042;-66
2023/08/08 00:29:48;;;;;;;0.90;0.90;;;14.00;99.90;;;;;;5143940;28;20041;-68
2023/08/08 00:32:20;;;;;;;1.15;1.05;;;14.00;99.90;;;;;;5159590;28;20038;-68
2023/08/08 00:34:54;;;;;;;1.35;1.25;;;14.10;99.90;;;;;;5145980;28;20041;-68
2023/08/08 00:37:25;;;;;;;1.35;1.20;;;14.10;99.90;;;;;;5172195;28;20246;-66
2023/08/08 00:39:59;;;;;;;1.30;1.20;;;14.10;99.90;;;;;;5154955;28;20643;-66
2023/08/08 00:42:36;;;;;;;1.23;1.13;;;14.10;99.90;;;;;;5145127;28;20046;-67
2023/08/08 00:45:09;;;;;;;1.52;1.15;;;14.10;99.90;;;;;;5152596;28;20045;-67
2023/08/08 00:47:41;;;;;;;2.65;1.45;;;14.00;99.90;;;;;;5139794;28;20152;-67
2023/08/08 00:50:17;;;;;;;1.15;1.05;;;13.90;99.90;;;;;;5156595;28;20038;-66
2023/08/08 00:52:53;;;;;;;1.20;1.10;;;13.70;99.90;;;;;;5170154;28;20050;-68
2023/08/08 00:55:29;;;;;;;1.95;1.20;;;13.80;99.90;;;;;;5161564;28;20046;-68
2023/08/08 00:58:04;;;;;;;1.25;1.15;;;13.90;99.90;;;;;;5160102;28;20598;-66
2023/08/08 01:03:10;;;;;;;1.42;1.33;;;13.90;99.90;;;;;;5089730;28;20060;-65
2023/08/08 01:05:51;;;;;;;1.20;1.10;;;13.80;99.90;;;;;;5140493;28;20036;-69
2023/08/08 01:08:47;;;;;;;1.23;1.15;;;13.80;99.90;;;;;;5157760;28;20039;-70
2023/08/08 01:11:20;;;;;;;5.38;1.30;;;13.90;99.90;;;;;;5120954;28;20056;-66
2023/08/08 01:13:57;;;;;;;1.30;1.20;;;13.90;99.90;;;;;;5090778;28;20055;-65
2023/08/08 01:16:29;;;;;;;1.40;1.30;;;13.90;99.90;;;;;;5138678;28;20074;-65
2023/08/08 01:19:01;;;;;;;1.25;1.15;;;13.80;99.90;;;;;;5076367;28;20233;-68
2023/08/08 01:21:41;;;;;;;1.13;1.05;;;13.80;99.90;;;;;;5148371;28;20444;-67
2023/08/08 01:24:23;;;;;;;1.17;0.93;;;13.70;1.00;;;;;;5077098;28;20447;-66
2023/08/08 01:26:56;;;;;;;1.30;1.20;;;13.70;99.90;;;;;;5074010;28;20040;-67
2023/08/08 01:29:30;;;;;;;1.35;1.17;;;13.70;1.00;;;;;;5089744;28;20048;-67
2023/08/08 01:32:03;;;;;;;1.77;1.05;;;13.70;1.00;;;;;;5070075;28;20057;-68
2023/08/08 01:34:37;;;;;;;1.20;1.02;;;13.80;1.00;;;;;;5084685;28;20062;-68
2023/08/08 01:37:25;;;;;;;3.45;2.08;;;13.90;1.00;;;;;;5091150;28;20059;-67
2023/08/08 01:40:00;;;;;;;2.30;1.08;;;13.80;1.00;;;;;;5091610;28;20059;-67
2023/08/08 01:42:33;;;;;;;2.25;1.23;;;13.80;1.00;;;;;;5072470;28;20053;-67
2023/08/08 01:45:10;;;;;;;1.00;1.00;;;13.80;1.00;;;;;;5074147;28;20054;-68
2023/08/08 01:47:45;;;;;;;1.98;1.10;;;13.80;99.90;;;;;;5074909;28;20079;-64
2023/08/08 01:50:26;;;;;;;1.10;1.02;;;13.80;99.90;;;;;;5098111;28;20048;-65
2023/08/08 01:52:57;;;;;;;2.70;1.23;;;13.80;99.90;;;;;;5061338;28;20351;-66
2023/08/08 01:55:37;;;;;;;1.40;1.30;;;13.80;1.00;;;;;;5072692;28;20044;-66
2023/08/08 01:58:11;;;;;;;1.40;1.30;;;13.80;1.00;;;;;;5059526;28;20040;-67
2023/08/08 02:00:46;;;;;;;1.02;0.98;;;13.70;1.00;;;;;;5087038;28;20348;-68
2023/08/08 02:03:18;;;;;;;1.02;1.00;;;13.50;1.00;;;;;;5076785;28;20052;-66
2023/08/08 02:05:59;;;;;;;1.27;1.17;;;13.50;1.00;;;;;;5076138;28;20062;-67
2023/08/08 02:08:33;;;;;;;1.05;1.00;;;13.60;1.00;;;;;;5094674;28;20039;-65
2023/08/08 02:11:07;;;;;;;1.98;1.17;;;13.50;1.00;;;;;;5082523;28;20058;-66
2023/08/08 02:13:38;;;;;;;1.90;1.40;;;13.40;1.00;;;;;;5116508;28;20035;-67
2023/08/08 02:16:10;;;;;;;1.30;1.20;;;13.50;1.00;;;;;;5120515;28;20150;-67
2023/08/08 02:18:42;;;;;;;1.02;0.88;;;13.40;1.00;;;;;;5149333;28;20043;-63
2023/08/08 02:21:14;;;;;;;3.45;1.35;;;13.40;1.00;;;;;;5115961;28;20042;-66
2023/08/08 02:23:49;;;;;;;1.08;1.08;;;13.40;1.00;;;;;;5183040;28;20606;-65
2023/08/08 02:26:21;;;;;;;3.13;1.33;;;13.30;1.00;;;;;;5113268;28;20046;-70
2023/08/08 02:28:53;;;;;;;1.77;1.00;;;13.30;1.00;;;;;;5190391;28;20439;-67
2023/08/08 02:31:27;;;;;;;1.30;1.20;;;13.20;1.00;;;;;;5191190;28;20040;-65
2023/08/08 02:34:02;;;;;;;2.17;1.30;;;13.10;1.00;;;;;;5162446;28;20054;-62
2023/08/08 02:36:34;;;;;;;1.40;1.30;;;13.10;1.00;;;;;;5177526;28;20043;-66
2023/08/08 02:39:11;;;;;;;1.10;1.00;;;13.10;1.00;;;;;;5116568;28;20047;-66
2023/08/08 02:41:47;;;;;;;1.35;1.25;;;13.00;1.00;;;;;;5117127;28;20043;-68
2023/08/08 02:44:19;;;;;;;1.40;1.30;;;13.00;1.00;;;;;;5188297;28;20043;-69
2023/08/08 02:46:51;;;;;;;0.95;0.95;;;12.90;1.00;;;;;;5130066;28;20499;-68
2023/08/08 02:49:25;;;;;;;1.40;1.25;;;12.90;31.30;;;;;;5134589;28;20046;-68
2023/08/08 02:52:03;;;;;;;1.13;1.00;;;12.90;80.00;;;;;;5128759;28;20055;-69
2023/08/08 02:54:38;;;;;;;1.35;1.00;;;12.90;91.20;;;;;;5198626;28;20358;-65
2023/08/08 02:57:15;;;;;;;1.60;1.40;;;13.00;1.00;;;;;;5082877;28;20043;-65
2023/08/08 02:59:46;;;;;;;1.00;0.98;;;13.30;1.00;;;;;;5146612;28;20057;-67
2023/08/08 03:02:21;;;;;;;2.17;1.20;;;13.30;1.00;;;;;;5139870;28;20533;-66
2023/08/08 03:04:52;;;;;;;;;;;13.20;1.00;;;;;;5127906;28;20057;-64
2023/08/08 03:07:24;;;;;;;1.45;1.35;;;13.30;1.00;;;;;;5100766;28;19929;-66
2023/08/08 03:10:00;;;;;;;1.15;1.02;;;13.20;1.00;;;;;;5098310;28;20214;-66
2023/08/08 03:12:34;;;;;;;1.73;1.45;;;13.10;1.00;;;;;;5165922;28;20615;-65
2023/08/08 03:15:06;;;;;;;;;;;13.00;1.00;;;;;;5108833;28;20043;-68
2023/08/08 03:17:40;;;;;;;1.52;1.10;;;13.00;3.30;;;;;;5097805;28;20145;-67
2023/08/08 03:20:18;;;;;;;1.33;1.23;;;13.10;1.00;;;;;;5098917;28;20035;-67
2023/08/08 03:22:49;;;;;;;1.27;1.17;;;13.20;1.00;;;;;;5131253;28;20582;-67
2023/08/08 03:25:26;;;;;;;1.52;1.05;;;13.20;1.00;;;;;;5116204;28;20387;-65
2023/08/08 03:27:59;;;;;;;1.48;1.30;;;13.20;1.00;;;;;;5137213;28;20408;-65
2023/08/08 03:30:36;;;;;;;1.08;0.98;;;13.30;1.00;;;;;;5128728;28;20046;-64
2023/08/08 03:33:13;;;;;;;3.25;1.20;;;13.30;1.00;;;;;;5103055;28;20035;-67
2023/08/08 03:35:51;;;;;;;1.42;1.33;;;13.20;1.00;;;;;;5191525;28;20500;-67
2023/08/08 03:38:25;;;;;;;0.88;0.88;;;13.20;1.00;;;;;;5118721;28;20041;-65
2023/08/08 03:40:57;;;;;;;0.95;0.95;;;13.30;1.00;;;;;;5139713;28;20057;-66
2023/08/08 03:43:31;;;;;;;0.90;0.90;;;13.40;1.00;;;;;;5099820;28;20034;-65
2023/08/08 03:46:02;;;;;;;2.80;1.27;;;13.40;1.00;;;;;;5147901;28;20043;-67
2023/08/08 03:48:37;;;;;;;1.10;1.00;;;13.40;1.00;;;;;;5162903;28;20374;-66
2023/08/08 03:51:08;;;;;;;;;;;13.40;1.00;;;;;;5159107;28;20055;-66
2023/08/08 03:53:43;;;;;;;1.52;1.20;;;13.40;1.00;;;;;;5120760;28;19922;-67
2023/08/08 03:56:17;;;;;;;1.17;1.13;;;13.50;1.00;;;;;;5111990;28;20043;-66
2023/08/08 03:58:48;;;;;;;3.05;1.15;;;13.70;1.00;;;;;;5126511;28;20043;-65
2023/08/08 04:01:20;;;;;;;0.85;0.85;;;13.80;99.90;;;;;;5124170;28;20334;-67
2023/08/08 04:03:54;;;;;;;2.20;1.30;;;14.00;1.00;;;;;;5128617;28;20047;-67
2023/08/08 04:06:34;;;;;;;1.85;1.30;;;14.10;99.90;;;;;;5084533;29;20050;-64
2023/08/08 04:09:10;;;;;;;1.10;1.00;;;14.20;99.90;;;;;;5090167;28;20243;-64
2023/08/08 04:11:41;;;;;;;1.23;1.13;;;14.30;99.90;;;;;;5164799;28;20048;-64
2023/08/08 04:14:18;;;;;;;1.20;1.17;;;14.30;99.90;;;;;;5090826;28;20057;-68
2023/08/08 04:16:52;;;;;;;1.17;1.10;;;14.30;99.90;;;;;;5113693;29;20219;-67
2023/08/08 04:19:26;;;;;;;1.00;1.00;;;14.30;99.90;;;;;;5133796;28;20058;-66
2023/08/08 04:22:05;;;;;;;1.40;1.30;;;14.30;99.90;;;;;;5165131;28;20043;-69
2023/08/08 04:24:36;;;;;;;4.03;1.10;;;14.30;99.90;;;;;;5114432;28;20059;-68
2023/08/08 04:27:08;;;;;;;1.38;1.20;;;14.30;99.90;;;;;;5120795;28;20050;-67
2023/08/08 04:29:41;;;;;;;1.08;1.08;;;14.40;99.90;;;;;;5150422;28;20055;-65
2023/08/08 04:32:16;;;;;;;1.08;0.93;;;14.50;99.90;;;;;;5114196;28;20043;-66
2023/08/08 04:34:52;;;;;;;0.90;0.90;;;14.70;99.90;;;;;;5145682;28;20047;-67
2023/08/08 04:37:23;;;;;;;1.20;1.10;;;14.70;99.90;;;;;;5160052;28;20639;-68
2023/08/08 04:39:57;;;;;;;2.05;1.30;;;14.80;99.90;;;;;;5174378;28;20039;-65
2023/08/08 04:42:29;;;;;;;1.50;1.40;;;14.70;99.90;;;;;;5161905;28;20049;-65
2023/08/08 04:45:01;;;;;;;1.00;1.00;;;14.70;99.90;;;;;;5184279;28;20053;-65
2023/08/08 04:47:38;;;;;;;1.52;1.15;;;14.70;99.90;;;;;;5112517;28;20038;-65
2023/08/08 04:50:10;;;;;;;1.20;1.10;;;14.70;99.90;;;;;;5219049;28;20051;-68
2023/08/08 04:52:44;;;;;;;1.42;1.17;;;14.80;99.90;;;;;;5134239;28;20041;-65
2023/08/08 04:55:19;;;;;;;1.20;1.10;;;14.80;99.90;;;;;;5162196;28;20098;-66
2023/08/08 04:57:53;;;;;;;1.05;0.93;;;14.90;99.90;;;;;;5100110;28;20050;-65
2023/08/08 05:00:27;;;;;;;0.95;0.95;;;15.00;31.60;;;;;;5125036;28;20606;-64
2023/08/08 05:03:02;;;;;;;1.13;1.08;;;15.10;99.90;;;;;;5182616;28;20048;-67
2023/08/08 05:05:40;;;;;;;1.40;1.30;;;15.30;76.80;;;;;;5196174;28;20184;-68
2023/08/08 05:08:16;;;;;;;2.15;0.82;;;15.40;1.00;;;;;;5179421;28;20576;-67
2023/08/08 05:10:49;;;;;;;1.35;1.25;;;15.60;99.90;;;;;;5100257;28;20038;-66
2023/08/08 05:13:23;;;;;;;1.35;1.20;;;15.80;10.00;;;;;;5164557;28;20049;-67
2023/08/08 05:15:55;;;;;;;;;;;16.30;1.00;;;;;;5118588;28;20086;-66
2023/08/08 05:18:26;;;;;;;1.10;1.00;;;16.60;1.00;;;;;;5109163;28;19934;-68
2023/08/08 05:21:00;;;;;;;1.30;1.20;;;16.70;22.30;;;;;;5149059;28;20047;-65
2023/08/08 05:23:32;;;;;;;3.33;1.13;;;16.90;99.90;;;;;;5158326;28;20049;-64
2023/08/08 05:26:03;;;;;;;1.58;1.00;;;16.90;99.90;;;;;;5191723;28;20044;-67
2023/08/08 05:28:38;;;;;;;1.20;1.10;;;17.20;99.90;;;;;;5170481;28;20347;-65
2023/08/08 05:31:10;;;;;;;1.30;1.20;;;17.30;1.00;;;;;;5186537;28;20654;-65
2023/08/08 05:33:44;;;;;;;1.00;0.90;;;17.60;1.00;;;;;;5165161;28;20055;-65
2023/08/08 05:36:18;;;;;;;1.20;1.10;;;17.70;1.00;;;;;;5164095;28;20396;-67
2023/08/08 05:38:52;;;;;;;1.55;1.23;;;17.90;1.00;;;;;;5148410;28;20047;-67
2023/08/08 05:41:24;;;;;;;1.65;1.15;;;17.90;1.00;;;;;;5069366;28;20593;-67
2023/08/08 05:43:56;;;;;;;0.90;0.90;;;18.00;1.00;;;;;;5129403;28;20059;-68
2023/08/08 05:46:30;;;;;;;1.42;1.20;;;17.90;20.30;;;;;;5108445;28;20058;-67
2023/08/08 05:49:02;;;;;;;2.60;1.27;;;17.90;45.00;;;;;;5129429;28;20522;-66
2023/08/08 05:51:36;;;;;;;0.90;0.90;;;17.90;1.00;;;;;;5147444;28;20299;-67
2023/08/08 05:54:07;;;;;;;1.25;1.17;;;18.00;38.20;;;;;;5129471;28;20034;-66
2023/08/08 05:56:43;;;;;;;0.82;0.82;;;17.90;1.00;;;;;;5084560;28;20659;-68
2023/08/08 05:59:18;;;;;;;1.48;1.10;;;17.90;1.00;;;;;;5114973;28;20051;-67
2023/08/08 06:01:53;;;;;;;1.10;1.02;;;18.00;1.00;;;;;;5186310;28;20059;-65
2023/08/08 06:04:28;;;;;;;1.10;1.00;;;18.20;1.00;;;;;;5175408;28;20047;-66
2023/08/08 06:07:05;;;;;;;0.93;0.93;;;18.40;1.00;;;;;;5096842;28;20110;-65
2023/08/08 06:09:41;;;;;;;2.67;1.45;;;18.50;1.00;;;;;;5165132;28;20069;-65
2023/08/08 06:12:15;;;;;;;1.00;1.00;;;18.90;99.90;;;;;;5134550;28;20698;-68
2023/08/08 06:14:48;;;;;;;1.23;1.13;;;19.20;99.90;;;;;;5117548;28;20055;-66
2023/08/08 06:17:20;;;;;;;1.10;0.82;;;19.40;99.90;;;;;;5116024;28;20035;-67
2023/08/08 06:19:54;;;;;;;1.45;1.10;;;19.30;99.90;;;;;;5181612;28;20055;-66
2023/08/08 06:22:25;;;;;;;1.60;1.50;;;19.30;99.90;;;;;;5180144;28;20039;-68
2023/08/08 06:24:59;;;;;;;1.30;1.20;;;19.30;99.90;;;;;;5149245;28;20057;-64
2023/08/08 06:27:41;;;;;;;1.30;1.20;;;19.30;1.00;;;;;;5116074;28;20214;-66
2023/08/08 06:30:12;;;;;;;1.88;1.08;;;19.60;99.90;;;;;;5126208;28;20048;-67
2023/08/08 06:32:49;;;;;;;0.88;0.85;;;19.20;99.90;;;;;;5112335;28;20504;-66
2023/08/08 06:35:20;;;;;;;1.13;1.02;;;19.20;99.90;;;;;;5137869;28;20047;-67
2023/08/08 06:37:52;;;;;;;0.90;0.90;;;19.30;1.00;;;;;;5119089;28;21662;-66
2023/08/08 06:40:31;;;;;;;1.13;1.08;;;19.10;99.90;;;;;;5112117;28;20048;-68
2023/08/08 06:43:05;;;;;;;1.50;1.17;;;18.80;99.90;;;;;;5156724;28;20352;-68
2023/08/08 06:45:40;;;;;;;0.98;0.98;;;18.80;99.90;;;;;;5132922;28;20042;-67
2023/08/08 06:48:17;;;;;;;1.30;1.20;;;18.90;99.90;;;;;;5149209;28;20330;-69
2023/08/08 06:50:50;;;;;;;1.10;1.10;;;19.00;99.90;;;;;;5202430;28;20057;-67
2023/08/08 06:53:24;;;;;;;1.20;1.10;;;19.20;99.90;;;;;;5177086;28;20039;-69
2023/08/08 06:55:58;;;;;;;1.20;1.10;;;19.60;1.00;;;;;;5185784;28;20039;-66
2023/08/08 06:58:32;;;;;;;1.05;1.05;;;19.40;1.00;;;;;;5090919;28;20083;-68
2023/08/08 07:01:04;;;;;;;1.35;1.13;;;19.20;1.00;;;;;;5152093;28;20050;-67
2023/08/08 07:03:43;;;;;;;1.15;1.10;;;19.40;1.00;;;;;;5125183;28;20031;-66
2023/08/08 07:06:18;;;;;;;2.33;1.05;;;19.60;1.00;;;;;;5162062;28;20035;-65
2023/08/08 07:08:52;;;;;;;1.83;1.08;;;20.20;1.00;;;;;;5132845;28;20052;-67
2023/08/08 07:11:24;;;;;;;4.00;2.00;;;20.20;1.00;;;;;;5216885;28;20055;-66
2023/08/08 07:14:00;;;;;;;0.90;0.90;;;19.80;1.00;;;;;;5104485;28;20061;-67
2023/08/08 07:16:37;;;;;;;1.10;0.95;;;19.60;99.90;;;;;;5202431;28;20108;-68
2023/08/08 07:19:11;;;;;;;1.15;0.98;;;19.80;99.90;;;;;;5166343;28;20378;-67
2023/08/08 07:21:44;;;;;;;1.10;1.10;;;20.40;1.00;;;;;;5185438;28;20031;-67
2023/08/08 07:24:21;;;;;;;6.72;1.92;;;21.00;1.00;;;;;;5185970;28;20205;-68
2023/08/08 07:26:57;;;;;;;1.52;1.42;;;20.80;1.00;;;;;;5152346;28;20052;-67
2023/08/08 07:29:29;;;;;;;1.13;1.02;;;20.60;1.00;;;;;;5169363;28;20437;-68
2023/08/08 07:32:04;;;;;;;1.17;1.00;;;20.40;1.00;;;;;;5184130;28;20133;-68
2023/08/08 07:34:36;;;;;;;1.30;1.08;;;20.40;1.00;;;;;;5105846;28;20034;-68
2023/08/08 07:37:07;;;;;;;0.80;0.80;;;20.90;1.00;;;;;;5158770;28;20039;-67
2023/08/08 07:39:39;;;;;;;2.88;1.25;;;21.80;1.00;;;;;;5109105;28;20435;-68
2023/08/08 07:42:18;;;;;;;1.23;1.13;;;21.70;1.00;;;;;;5185288;28;20045;-66
2023/08/08 07:44:50;;;;;;;1.13;1.02;;;22.00;1.00;;;;;;5161622;28;20152;-66
2023/08/08 07:47:25;;;;;;;1.23;1.00;;;21.50;1.00;;;;;;5180403;28;20401;-68
2023/08/08 07:49:56;;;;;;;1.42;1.33;;;21.50;1.00;;;;;;5179568;28;20188;-65
2023/08/08 07:52:28;;;;;;;1.27;1.15;;;21.00;1.00;;;;;;5185816;28;20039;-67
2023/08/08 07:55:04;;;;;;;1.20;1.10;;;21.00;1.00;;;;;;5125845;28;20035;-64
2023/08/08 07:57:36;;;;;;;1.83;1.55;;;20.90;1.00;;;;;;5182914;28;20047;-66
2023/08/08 08:00:12;;;;;;;0.98;0.98;;;21.00;1.00;;;;;;5102592;28;20039;-66
2023/08/08 08:02:45;;;;;;;1.08;1.00;;;21.10;1.00;;;;;;5172178;28;20051;-65
2023/08/08 08:05:16;;;;;;;0.95;0.95;;;21.10;1.00;;;;;;5185723;28;20039;-68
2023/08/08 08:07:48;;;;;;;1.45;1.20;;;21.30;1.00;;;;;;5202605;28;20047;-67
2023/08/08 08:10:19;;;;;;;0.77;0.70;;;21.40;1.00;;;;;;5186170;28;20216;-66
2023/08/08 08:12:57;;;;;;;0.98;0.98;;;21.60;1.00;;;;;;5136013;28;20047;-67
2023/08/08 08:15:29;;;;;;;0.80;0.80;;;21.60;1.00;;;;;;5101527;28;20057;-66
2023/08/08 08:18:00;;;;;;;1.27;1.17;;;22.10;1.00;;;;;;5120529;29;20045;-66
2023/08/08 08:20:37;;;;;;;3.05;1.10;;;22.20;1.00;;;;;;5105248;28;20044;-67
2023/08/08 08:23:09;;;;;;;2.38;0.95;;;22.10;1.00;;;;;;5110016;28;20047;-69
2023/08/08 08:25:41;;;;;;;0.95;0.95;;;21.70;1.00;;;;;;5186483;28;20035;-69
2023/08/08 08:28:13;;;;;;;0.80;0.80;;;22.00;1.00;;;;;;5109949;28;20355;-68
2023/08/08 08:30:45;;;;;;;1.00;0.90;;;22.00;1.00;;;;;;5206941;28;20064;-67
2023/08/08 08:33:22;;;;;;;0.85;0.77;;;22.10;1.00;;;;;;5165471;28;20343;-67
2023/08/08 08:35:53;;;;;;;2.30;1.20;;;21.30;1.00;;;;;;5171024;28;20061;-68
2023/08/08 08:38:27;;;;;;;1.02;1.00;;;20.90;1.00;;;;;;5184261;28;20031;-67
2023/08/08 08:41:02;;;;;;;1.20;1.10;;;20.90;1.00;;;;;;5115140;28;20047;-67
2023/08/08 08:43:33;;;;;;;1.77;1.67;;;20.70;1.00;;;;;;5163824;28;20053;-65
2023/08/08 08:46:08;;;;;;;1.05;1.02;;;20.90;1.00;;;;;;5113621;28;20040;-69
2023/08/08 08:48:45;;;;;;;1.02;0.93;;;20.80;1.00;;;;;;5157952;28;20118;-64
2023/08/08 08:51:24;;;;;;;1.63;0.93;;;20.80;1.00;;;;;;5115830;28;20244;-66
2023/08/08 08:53:58;;;;;;;1.10;0.82;;;20.60;1.00;;;;;;5182541;28;20045;-68
2023/08/08 08:56:37;;;;;;;1.30;1.20;;;20.30;1.00;;;;;;5171160;28;20328;-65
2023/08/08 08:59:09;;;;;;;1.20;1.10;;;20.40;1.00;;;;;;5115693;28;20038;-68
2023/08/08 09:01:41;;;;;;;1.38;1.02;;;20.30;1.00;;;;;;5212171;28;20047;-64
2023/08/08 09:04:19;;;;;;;1.13;1.02;;;20.20;1.00;;;;;;5179095;28;20040;-68
2023/08/08 09:06:55;;;;;;;1.52;1.10;;;20.40;1.00;;;;;;5130090;28;20031;-67
2023/08/08 09:09:31;;;;;;;1.23;1.13;;;20.50;1.00;;;;;;5219276;28;20043;-68
2023/08/08 09:12:09;;;;;;;1.17;1.08;;;20.70;1.00;;;;;;5219599;28;20045;-67
2023/08/08 09:14:42;;;;;;;1.15;1.05;;;20.60;1.00;;;;;;5189103;28;20231;-66
2023/08/08 09:17:14;;;;;;;1.20;1.10;;;20.70;1.00;;;;;;5173334;28;20046;-67
2023/08/08 09:19:48;;;;;;;1.20;1.10;;;20.80;1.00;;;;;;5117267;28;20057;-66
2023/08/08 09:22:23;;;;;;;1.05;0.98;;;21.00;1.00;;;;;;5186484;28;20037;-65
2023/08/08 09:24:57;;;;;;;1.27;1.10;;;20.90;1.00;;;;;;5180322;28;20031;-67
2023/08/08 09:27:32;;;;;;;1.17;1.08;;;21.10;1.00;;;;;;5156574;28;20039;-66
2023/08/08 09:30:05;;;;;;;1.52;1.05;;;21.10;1.00;;;;;;5117947;28;20049;-68
2023/08/08 09:32:36;;;;;;;0.93;0.93;;;21.30;1.00;;;;;;5117098;28;20073;-67
2023/08/08 09:35:09;;;;;;;0.98;0.98;;;21.50;1.00;;;;;;5121203;28;20039;-68
2023/08/08 09:37:41;;;;;;;1.33;1.23;;;21.50;1.00;;;;;;5143992;28;20065;-68
2023/08/08 09:40:15;;;;;;;1.20;1.10;;;21.60;1.00;;;;;;5202108;28;20047;-66
2023/08/08 09:42:49;;;;;;;1.30;1.20;;;21.90;1.00;;;;;;5210386;28;20028;-65
2023/08/08 09:45:24;;;;;;;1.05;1.05;;;22.30;1.00;;;;;;5116315;28;20056;-67
2023/08/08 09:47:56;;;;;;;0.98;0.98;;;22.40;1.00;;;;;;5134636;28;20043;-66
2023/08/08 09:50:32;;;;;;;1.23;0.95;;;22.90;1.00;;;;;;5103019;28;20046;-67
2023/08/08 09:53:04;;;;;;;1.10;1.10;;;23.00;1.00;;;;;;5082030;29;20057;-63
2023/08/08 09:55:37;;;;;;;0.73;0.73;;;22.80;1.00;;;;;;5105254;28;20047;-68
2023/08/08 09:58:10;;;;;;;1.20;1.10;;;23.00;1.00;;;;;;5196864;28;20211;-66
2023/08/08 10:00:51;;;;;;;1.20;0.90;;;23.10;1.00;;;;;;5178040;28;20053;-64
2023/08/08 10:03:28;;;;;;;0.98;0.85;;;23.70;1.00;;;;;;5150580;28;20482;-66
2023/08/08 10:06:01;;;;;;;0.77;0.77;;;23.50;1.00;;;;;;5138173;28;20043;-66
2023/08/08 10:08:38;;;;;;;0.95;0.75;;;23.00;1.00;;;;;;5107349;28;20051;-67
2023/08/08 10:11:14;;;;;;;2.72;1.35;;;22.70;1.00;;;;;;5102771;28;20039;-67
2023/08/08 10:13:50;;;;;;;1.13;0.82;;;22.60;1.00;;;;;;5196426;28;20027;-67
2023/08/08 10:16:23;;;;;;;1.13;0.90;;;22.50;1.00;;;;;;5188785;28;20043;-65
2023/08/08 10:19:02;;;;;;;0.90;0.90;;;22.70;1.00;;;;;;5195631;28;20053;-65
2023/08/08 10:21:37;;;;;;;1.25;1.00;;;22.70;1.00;;;;;;5161494;28;20528;-66
2023/08/08 10:24:10;;;;;;;1.20;1.10;;;23.10;1.00;;;;;;5116206;28;20029;-67
2023/08/08 10:27:04;;;;;;;0.70;0.70;;;23.30;1.00;;;;;;5147343;28;20172;-66
2023/08/08 10:29:39;;;;;;;0.80;0.80;;;23.10;1.00;;;;;;5200093;28;20209;-68
2023/08/08 10:32:13;;;;;;;0.88;0.88;;;23.40;1.00;;;;;;5184347;28;20051;-66
2023/08/08 10:34:50;;;;;;;1.17;1.00;;;24.30;1.00;;;;;;5165449;28;20611;-66
2023/08/08 10:37:23;;;;;;;1.08;0.98;;;24.10;1.00;;;;;;5180804;28;20072;-68
2023/08/08 10:40:05;;;;;;;1.10;1.00;;;23.40;1.00;;;;;;5177287;28;20049;-68
2023/08/08 10:42:46;;;;;;;0.82;0.82;;;24.20;1.00;;;;;;5178587;28;20058;-68
2023/08/08 10:45:20;;;;;;;1.55;0.68;;;25.00;1.00;;;;;;5192977;28;20071;-65
2023/08/08 10:47:52;;;;;;;;;;;26.00;1.00;;;;;;5177352;28;20047;-67
2023/08/08 10:50:26;;;;;;;0.90;0.80;;;26.50;1.00;;;;;;5112767;28;20186;-68
2023/08/08 10:52:59;;;;;;;0.77;0.77;;;26.80;1.00;;;;;;5150576;28;20058;-67
2023/08/08 10:55:39;;;;;;;1.73;0.90;;;26.30;1.00;;;;;;5179896;28;20039;-62
2023/08/08 10:58:19;;;;;;;0.70;0.70;;;26.50;1.00;;;;;;5165891;28;20043;-64
2023/08/08 11:01:00;;;;;;;0.70;0.70;;;27.20;1.00;;;;;;5170720;28;20323;-67
2023/08/08 11:03:37;;;;;;;0.60;0.60;;;27.80;1.00;;;;;;5155328;28;20047;-68
2023/08/08 11:06:13;;;;;;;1.33;0.70;;;28.10;1.00;;;;;;5197356;28;20116;-69
2023/08/08 11:08:47;;;;;;;0.63;0.63;;;27.50;1.00;;;;;;5140497;28;20141;-64
2023/08/08 11:11:21;;;;;;;0.95;0.90;;;26.70;1.00;;;;;;5117630;28;20047;-68
2023/08/08 11:14:03;;;;;;;0.52;0.50;;;27.00;1.00;;;;;;5198935;28;20051;-66
2023/08/08 11:16:35;;;;;;;0.70;0.70;;;27.90;1.00;;;;;;5178981;28;20308;-66
2023/08/08 11:19:07;;;;;;;1.70;0.80;;;28.10;1.00;;;;;;5159666;28;20059;-70
2023/08/08 11:21:49;;;;;;;1.35;0.77;;;26.10;1.00;;;;;;5160502;28;20066;-68
2023/08/08 11:24:23;;;;;;;0.60;0.60;;;26.30;1.00;;;;;;5118884;28;20049;-69
2023/08/08 11:27:02;;;;;;;1.73;0.82;;;26.50;1.00;;;;;;5165928;28;20293;-68
2023/08/08 11:29:35;;;;;;;0.70;0.70;;;25.50;1.00;;;;;;5191577;28;20051;-68
2023/08/08 11:32:09;;;;;;;0.95;0.75;;;26.60;1.00;;;;;;5159131;28;20067;-67
2023/08/08 11:34:44;;;;;;;0.70;0.65;;;28.00;1.00;;;;;;5181787;28;20042;-68
2023/08/08 11:37:16;;;;;;;1.05;0.80;;;29.10;1.00;;;;;;5199308;28;20028;-65
2023/08/08 11:39:48;;;;;;;0.73;0.73;;;28.80;1.00;;;;;;5130755;28;20034;-66
2023/08/08 11:42:19;;;;;;;1.40;0.90;;;28.20;1.00;;;;;;5162812;28;20239;-68
2023/08/08 11:44:51;;;;;;;0.70;0.70;;;27.50;1.00;;;;;;5158276;28;20039;-68
2023/08/08 11:47:31;;;;;;;0.73;0.70;;;26.70;1.00;;;;;;5111744;28;20094;-66
2023/08/08 11:50:06;;;;;;;0.90;0.82;;;26.20;1.00;;;;;;5194930;28;20047;-66
2023/08/08 11:52:43;;;;;;;0.73;0.73;;;27.10;1.00;;;;;;5167222;28;20435;-67
2023/08/08 11:55:16;;;;;;;0.60;0.60;;;28.30;1.00;;;;;;5154393;28;20050;-67
2023/08/08 11:57:49;;;;;;;0.50;0.50;;;29.40;1.00;;;;;;5194434;28;20027;-66
2023/08/08 12:00:26;;;;;;;0.88;0.77;;;28.90;1.00;;;;;;5184646;28;20515;-67
2023/08/08 12:03:06;;;;;;;0.70;0.70;;;29.30;1.00;;;;;;5195684;28;20037;-65
2023/08/08 12:05:42;;;;;;;1.52;0.63;;;28.90;1.00;;;;;;5192304;28;20050;-65
2023/08/08 12:08:23;;;;;;;0.65;0.63;;;28.80;1.00;;;;;;5176171;28;20055;-65
2023/08/08 12:10:56;;;;;;;0.77;0.77;;;27.90;1.00;;;;;;5186489;28;20352;-68
2023/08/08 12:13:31;;;;;;;0.60;0.60;;;28.30;1.00;;;;;;5123181;28;20069;-67
2023/08/08 12:16:05;;;;;;;2.22;0.90;;;28.40;1.00;;;;;;5195942;28;20106;-66
2023/08/08 12:18:41;;;;;;;0.68;0.65;;;29.00;1.00;;;;;;5176026;28;20043;-66
2023/08/08 12:21:15;;;;;;;0.52;0.52;;;29.10;1.00;;;;;;5202456;28;20543;-67
2023/08/08 12:23:48;;;;;;;1.05;0.73;;;29.20;1.00;;;;;;5150090;28;20047;-65
2023/08/08 12:26:20;;;;;;;0.75;0.60;;;29.00;1.00;;;;;;5166187;28;20194;-67
2023/08/08 12:28:53;;;;;;;0.50;0.50;;;29.90;1.00;;;;;;5139176;28;20043;-67
2023/08/08 12:31:25;;;;;;;0.80;0.80;;;30.20;1.00;;;;;;5145633;28;20487;-66
2023/08/08 12:33:57;;;;;;;0.60;0.57;;;29.80;1.00;;;;;;5182609;28;20062;-68
2023/08/08 12:36:33;;;;;;;0.80;0.77;;;29.70;1.00;;;;;;5124332;28;20035;-68
2023/08/08 12:39:10;;;;;;;0.77;0.77;;;29.30;1.00;;;;;;5116534;28;20039;-68
2023/08/08 12:41:44;;;;;;;1.27;0.65;;;28.00;1.00;;;;;;5118728;28;20043;-65
2023/08/08 12:44:19;;;;;;;0.82;0.80;;;26.40;1.00;;;;;;5203122;28;20057;-68
2023/08/08 12:46:54;;;;;;;1.45;0.98;;;27.10;1.00;;;;;;5163965;28;20043;-67
2023/08/08 12:49:26;;;;;;;1.05;0.50;;;29.00;1.00;;;;;;5175641;28;20363;-63
2023/08/08 12:51:59;;;;;;;0.73;0.60;;;29.00;1.00;;;;;;5119131;28;20324;-66
2023/08/08 12:54:33;;;;;;;0.88;0.68;;;28.10;1.00;;;;;;5182218;28;20053;-65
2023/08/08 12:57:07;;;;;;;0.73;0.73;;;27.10;1.00;;;;;;5177385;28;20055;-68
2023/08/08 12:59:41;;;;;;;;;;;27.30;1.00;;;;;;5172135;28;20215;-64
2023/08/08 13:02:13;;;;;;;0.85;0.85;;;27.20;1.00;;;;;;5147681;28;20189;-66
2023/08/08 13:04:44;;;;;;;0.60;0.60;;;28.90;1.00;;;;;;5176458;28;20057;-64
2023/08/08 13:07:19;;;;;;;0.95;0.82;;;29.50;1.00;;;;;;5163184;28;20532;-63
2023/08/08 13:09:58;;;;;;;1.50;0.90;;;30.50;1.00;;;;;;5168170;28;20053;-68
2023/08/08 13:12:32;;;;;;;0.70;0.70;;;31.30;1.00;;;;;;5185745;28;20059;-66
2023/08/08 13:15:08;;;;;;;0.98;0.88;;;31.60;1.00;;;;;;5082062;28;20045;-68
2023/08/08 13:17:42;;;;;;;0.85;0.80;;;31.20;1.00;;;;;;5094064;28;20386;-64
2023/08/08 13:20:14;;;;;;;;;;;30.60;1.00;;;;;;5152167;28;20368;-64
2023/08/08 13:22:45;;;;;;;2.17;0.80;;;29.30;1.00;;;;;;5134505;28;19909;-67
2023/08/08 13:25:18;;;;;;;0.77;0.77;;;29.40;1.00;;;;;;5113654;28;20027;-68
2023/08/08 13:27:53;;;;;;;0.88;0.60;;;28.60;1.00;;;;;;5185878;28;20395;-67
2023/08/08 13:30:24;;;;;;;0.98;0.70;;;28.60;1.00;;;;;;5197948;28;20235;-65
2023/08/08 13:32:59;;;;;;;0.98;0.85;;;28.80;1.00;;;;;;5176219;28;20063;-66
2023/08/08 13:35:30;;;;;;;1.63;0.98;;;28.50;1.00;;;;;;5129360;28;20038;-63